sensor_id;sensor_type;location;lat;lon;timestamp;pressure;altitude;pressure_sealevel;temperature;humidity
10940;BME280;5522;42.696;23.494;2024-03-06T00:02:25;53823.66;;;-139.68;100.00
10940;BME280;5522;42.696;23.494;2024-03-06T00:04:53;53835.72;;;-139.68;100.00
10940;BME280;5522;42.696;23.494;2024-03-06T00:07:20;53835.72;;;-139.68;100.00
10940;BME280;5522;42.696;23.494;2024-03-06T00:09:47;53805.56;;;-139.68;100.00
10940;BME280;5522;42.696;23.494;2024-03-06T00:12:14;53835.72;;;-139.68;100.00
10940;BME280;5522;42.696;23.494;2024-03-06T00:14:50;53843.75;;;-139.68;100.00
10940;BME280;5522;42.696;23.494;2024-03-06T00:17:18;53797.53;;;-139.68;100.00
10940;BME280;5522;42.696;23.494;2024-03-06T00:19:47;53853.81;;;-139.68;100.00
10940;BME280;5522;42.696;23.494;2024-03-06T00:22:16;53815.63;;;-139.68;100.00
10940;BME280;5522;42.696;23.494;2024-03-06T00:24:43;53809.59;;;-139.68;100.00
10940;BME280;5522;42.696;23.494;2024-03-06T00:27:16;53831.69;;;-139.68;100.00
10940;BME280;5522;42.696;23.494;2024-03-06T00:29:43;53803.56;;;-139.68;100.00
10940;BME280;5522;42.696;23.494;2024-03-06T00:32:11;53827.69;;;-139.68;100.00
10940;BME280;5522;42.696;23.494;2024-03-06T00:34:40;53829.69;;;-139.68;100.00
10940;BME280;5522;42.696;23.494;2024-03-06T00:37:12;53833.72;;;-139.68;100.00
10940;BME280;5522;42.696;23.494;2024-03-06T00:39:43;53835.72;;;-139.68;100.00
10940;BME280;5522;42.696;23.494;2024-03-06T00:42:12;53835.72;;;-139.68;100.00
10940;BME280;5522;42.696;23.494;2024-03-06T00:44:41;53839.75;;;-139.68;100.00
10940;BME280;5522;42.696;23.494;2024-03-06T00:47:08;53819.63;;;-139.68;100.00
10940;BME280;5522;42.696;23.494;2024-03-06T00:49:43;53809.59;;;-139.68;100.00
10940;BME280;5522;42.696;23.494;2024-03-06T00:52:10;53835.72;;;-139.68;100.00
10940;BME280;5522;42.696;23.494;2024-03-06T00:54:37;53811.59;;;-139.68;100.00
10940;BME280;5522;42.696;23.494;2024-03-06T00:57:14;53811.59;;;-139.68;100.00
10940;BME280;5522;42.696;23.494;2024-03-06T00:59:41;53787.47;;;-139.68;100.00
10940;BME280;5522;42.696;23.494;2024-03-06T01:07:18;53783.44;;;-139.68;100.00
10940;BME280;5522;42.696;23.494;2024-03-06T01:09:44;53831.69;;;-139.68;100.00
10940;BME280;5522;42.696;23.494;2024-03-06T01:12:11;53839.75;;;-139.68;100.00
10940;BME280;5522;42.696;23.494;2024-03-06T01:14:39;53775.41;;;-139.68;100.00
10940;BME280;5522;42.696;23.494;2024-03-06T01:17:07;53807.56;;;-139.68;100.00
10940;BME280;5522;42.696;23.494;2024-03-06T01:19:34;53795.50;;;-139.68;100.00
10940;BME280;5522;42.696;23.494;2024-03-06T01:22:01;53795.50;;;-139.68;100.00
10940;BME280;5522;42.696;23.494;2024-03-06T01:24:28;53787.47;;;-139.68;100.00
10940;BME280;5522;42.696;23.494;2024-03-06T01:26:55;53817.63;;;-139.68;100.00
10940;BME280;5522;42.696;23.494;2024-03-06T01:29:21;53799.53;;;-139.68;100.00
10940;BME280;5522;42.696;23.494;2024-03-06T01:31:49;53787.47;;;-139.68;100.00
10940;BME280;5522;42.696;23.494;2024-03-06T01:34:17;53785.47;;;-139.68;100.00
10940;BME280;5522;42.696;23.494;2024-03-06T01:36:44;53787.47;;;-139.68;100.00
10940;BME280;5522;42.696;23.494;2024-03-06T01:39:11;53767.38;;;-139.68;100.00
10940;BME280;5522;42.696;23.494;2024-03-06T01:41:44;53789.47;;;-139.68;100.00
10940;BME280;5522;42.696;23.494;2024-03-06T01:44:11;53767.38;;;-139.68;100.00
10940;BME280;5522;42.696;23.494;2024-03-06T01:46:38;53771.38;;;-139.68;100.00
10940;BME280;5522;42.696;23.494;2024-03-06T01:49:06;53765.34;;;-139.68;100.00
10940;BME280;5522;42.696;23.494;2024-03-06T01:51:34;53765.34;;;-139.68;100.00
10940;BME280;5522;42.696;23.494;2024-03-06T01:54:01;53783.44;;;-139.68;100.00
10940;BME280;5522;42.696;23.494;2024-03-06T01:56:30;53799.53;;;-139.68;100.00
10940;BME280;5522;42.696;23.494;2024-03-06T01:58:58;53819.63;;;-139.68;100.00
10940;BME280;5522;42.696;23.494;2024-03-06T02:01:25;53779.44;;;-139.68;100.00
10940;BME280;5522;42.696;23.494;2024-03-06T02:03:52;53815.63;;;-139.68;100.00
10940;BME280;5522;42.696;23.494;2024-03-06T02:06:21;53773.41;;;-139.68;100.00
10940;BME280;5522;42.696;23.494;2024-03-06T02:08:48;53803.56;;;-139.68;100.00
10940;BME280;5522;42.696;23.494;2024-03-06T02:11:15;53757.31;;;-139.68;100.00
10940;BME280;5522;42.696;23.494;2024-03-06T02:13:42;53783.44;;;-139.68;100.00
10940;BME280;5522;42.696;23.494;2024-03-06T02:16:09;53791.50;;;-139.68;100.00
10940;BME280;5522;42.696;23.494;2024-03-06T02:18:37;53789.47;;;-139.68;100.00
10940;BME280;5522;42.696;23.494;2024-03-06T02:21:06;53801.53;;;-139.68;100.00
10940;BME280;5522;42.696;23.494;2024-03-06T02:23:33;53775.41;;;-139.68;100.00
10940;BME280;5522;42.696;23.494;2024-03-06T02:26:00;53765.34;;;-139.68;100.00
10940;BME280;5522;42.696;23.494;2024-03-06T02:28:27;53813.59;;;-139.68;100.00
10940;BME280;5522;42.696;23.494;2024-03-06T02:30:55;53767.38;;;-139.68;100.00
10940;BME280;5522;42.696;23.494;2024-03-06T02:33:29;53807.56;;;-139.68;100.00
10940;BME280;5522;42.696;23.494;2024-03-06T02:35:55;53803.56;;;-139.68;100.00
10940;BME280;5522;42.696;23.494;2024-03-06T02:38:24;53763.34;;;-139.68;100.00
10940;BME280;5522;42.696;23.494;2024-03-06T02:40:50;53757.31;;;-139.68;100.00
10940;BME280;5522;42.696;23.494;2024-03-06T02:43:17;53783.44;;;-139.68;100.00
10940;BME280;5522;42.696;23.494;2024-03-06T02:45:44;53833.72;;;-139.68;100.00
10940;BME280;5522;42.696;23.494;2024-03-06T02:48:11;53767.38;;;-139.68;100.00
10940;BME280;5522;42.696;23.494;2024-03-06T02:50:37;53775.41;;;-139.68;100.00
10940;BME280;5522;42.696;23.494;2024-03-06T02:53:04;53771.38;;;-139.68;100.00
10940;BME280;5522;42.696;23.494;2024-03-06T02:55:32;53763.34;;;-139.68;100.00
10940;BME280;5522;42.696;23.494;2024-03-06T02:58:01;53785.47;;;-139.68;100.00
10940;BME280;5522;42.696;23.494;2024-03-06T03:00:29;53775.41;;;-139.68;100.00
10940;BME280;5522;42.696;23.494;2024-03-06T03:02:56;53771.38;;;-139.68;100.00
10940;BME280;5522;42.696;23.494;2024-03-06T03:05:23;53759.31;;;-139.68;100.00
10940;BME280;5522;42.696;23.494;2024-03-06T03:07:50;53789.47;;;-139.68;100.00
10940;BME280;5522;42.696;23.494;2024-03-06T03:10:17;53767.38;;;-139.68;100.00
10940;BME280;5522;42.696;23.494;2024-03-06T03:12:45;53795.50;;;-139.68;100.00
10940;BME280;5522;42.696;23.494;2024-03-06T03:15:12;53835.72;;;-139.68;100.00
10940;BME280;5522;42.696;23.494;2024-03-06T03:17:39;53823.66;;;-139.68;100.00
10940;BME280;5522;42.696;23.494;2024-03-06T03:20:07;53839.75;;;-139.68;100.00
10940;BME280;5522;42.696;23.494;2024-03-06T03:22:36;53813.59;;;-139.68;100.00
10940;BME280;5522;42.696;23.494;2024-03-06T03:25:04;53811.59;;;-139.68;100.00
10940;BME280;5522;42.696;23.494;2024-03-06T03:27:33;53791.50;;;-139.68;100.00
10940;BME280;5522;42.696;23.494;2024-03-06T03:30:01;53793.50;;;-139.68;100.00
10940;BME280;5522;42.696;23.494;2024-03-06T03:32:28;53779.44;;;-139.68;100.00
10940;BME280;5522;42.696;23.494;2024-03-06T03:34:55;53787.47;;;-139.68;100.00
10940;BME280;5522;42.696;23.494;2024-03-06T03:37:22;53805.56;;;-139.68;100.00
10940;BME280;5522;42.696;23.494;2024-03-06T03:39:49;53811.59;;;-139.68;100.00
10940;BME280;5522;42.696;23.494;2024-03-06T03:42:15;53763.34;;;-139.68;100.00
10940;BME280;5522;42.696;23.494;2024-03-06T03:44:42;53753.28;;;-139.68;100.00
10940;BME280;5522;42.696;23.494;2024-03-06T03:47:10;53803.56;;;-139.68;100.00
10940;BME280;5522;42.696;23.494;2024-03-06T03:49:37;53783.44;;;-139.68;100.00
10940;BME280;5522;42.696;23.494;2024-03-06T03:52:04;53771.38;;;-139.68;100.00
10940;BME280;5522;42.696;23.494;2024-03-06T03:54:32;53791.50;;;-139.68;100.00
10940;BME280;5522;42.696;23.494;2024-03-06T03:57:01;53741.22;;;-139.68;100.00
10940;BME280;5522;42.696;23.494;2024-03-06T03:59:27;53817.63;;;-139.68;100.00
10940;BME280;5522;42.696;23.494;2024-03-06T04:01:54;53779.44;;;-139.68;100.00
10940;BME280;5522;42.696;23.494;2024-03-06T04:04:24;53791.50;;;-139.68;100.00
10940;BME280;5522;42.696;23.494;2024-03-06T04:06:50;53767.38;;;-139.68;100.00
10940;BME280;5522;42.696;23.494;2024-03-06T04:09:17;53807.56;;;-139.68;100.00
10940;BME280;5522;42.696;23.494;2024-03-06T04:11:44;53799.53;;;-139.68;100.00
10940;BME280;5522;42.696;23.494;2024-03-06T04:14:11;53793.50;;;-139.68;100.00
10940;BME280;5522;42.696;23.494;2024-03-06T04:16:38;53803.56;;;-139.68;100.00
10940;BME280;5522;42.696;23.494;2024-03-06T04:19:05;53801.53;;;-139.68;100.00
10940;BME280;5522;42.696;23.494;2024-03-06T04:21:33;53777.41;;;-139.68;100.00
10940;BME280;5522;42.696;23.494;2024-03-06T04:23:59;53789.47;;;-139.68;100.00
10940;BME280;5522;42.696;23.494;2024-03-06T04:26:26;53775.41;;;-139.68;100.00
10940;BME280;5522;42.696;23.494;2024-03-06T04:28:53;53759.31;;;-139.68;100.00
10940;BME280;5522;42.696;23.494;2024-03-06T04:31:20;53811.59;;;-139.68;100.00
10940;BME280;5522;42.696;23.494;2024-03-06T04:33:49;53749.28;;;-139.68;100.00
10940;BME280;5522;42.696;23.494;2024-03-06T04:36:16;53811.59;;;-139.68;100.00
10940;BME280;5522;42.696;23.494;2024-03-06T04:38:44;53795.50;;;-139.68;100.00
10940;BME280;5522;42.696;23.494;2024-03-06T04:41:11;53785.47;;;-139.68;100.00
10940;BME280;5522;42.696;23.494;2024-03-06T04:43:38;53759.31;;;-139.68;100.00
10940;BME280;5522;42.696;23.494;2024-03-06T04:46:05;53789.47;;;-139.68;100.00
10940;BME280;5522;42.696;23.494;2024-03-06T04:48:32;53827.69;;;-139.68;100.00
10940;BME280;5522;42.696;23.494;2024-03-06T04:50:58;53749.28;;;-139.68;100.00
10940;BME280;5522;42.696;23.494;2024-03-06T04:53:25;53783.44;;;-139.68;100.00
10940;BME280;5522;42.696;23.494;2024-03-06T04:55:53;53767.38;;;-139.68;100.00
10940;BME280;5522;42.696;23.494;2024-03-06T04:58:20;53827.69;;;-139.68;100.00
10940;BME280;5522;42.696;23.494;2024-03-06T05:00:47;53807.56;;;-139.68;100.00
10940;BME280;5522;42.696;23.494;2024-03-06T05:03:14;53789.47;;;-139.68;100.00
10940;BME280;5522;42.696;23.494;2024-03-06T05:05:41;53821.66;;;-139.68;100.00
10940;BME280;5522;42.696;23.494;2024-03-06T05:08:10;53763.34;;;-139.68;100.00
10940;BME280;5522;42.696;23.494;2024-03-06T05:10:37;53791.50;;;-139.68;100.00
10940;BME280;5522;42.696;23.494;2024-03-06T05:13:05;53759.31;;;-139.68;100.00
10940;BME280;5522;42.696;23.494;2024-03-06T05:15:32;53813.59;;;-139.68;100.00
10940;BME280;5522;42.696;23.494;2024-03-06T05:17:58;53767.38;;;-139.68;100.00
10940;BME280;5522;42.696;23.494;2024-03-06T05:20:26;53767.38;;;-139.68;100.00
10940;BME280;5522;42.696;23.494;2024-03-06T05:22:53;53803.56;;;-139.68;100.00
10940;BME280;5522;42.696;23.494;2024-03-06T05:25:20;53795.50;;;-139.68;100.00
10940;BME280;5522;42.696;23.494;2024-03-06T05:27:46;53791.50;;;-139.68;100.00
10940;BME280;5522;42.696;23.494;2024-03-06T05:30:15;53779.44;;;-139.68;100.00
10940;BME280;5522;42.696;23.494;2024-03-06T05:32:42;53789.47;;;-139.68;100.00
10940;BME280;5522;42.696;23.494;2024-03-06T05:35:08;53815.63;;;-139.68;100.00
10940;BME280;5522;42.696;23.494;2024-03-06T05:37:36;53827.69;;;-139.68;100.00
10940;BME280;5522;42.696;23.494;2024-03-06T05:40:09;53779.44;;;-139.68;100.00
10940;BME280;5522;42.696;23.494;2024-03-06T05:42:36;53787.47;;;-139.68;100.00
10940;BME280;5522;42.696;23.494;2024-03-06T05:45:04;53807.56;;;-139.68;100.00
10940;BME280;5522;42.696;23.494;2024-03-06T05:47:37;53823.66;;;-139.68;100.00
10940;BME280;5522;42.696;23.494;2024-03-06T05:50:05;53767.38;;;-139.68;100.00
10940;BME280;5522;42.696;23.494;2024-03-06T05:52:32;53837.72;;;-139.68;100.00
10940;BME280;5522;42.696;23.494;2024-03-06T05:54:59;53797.53;;;-139.68;100.00
10940;BME280;5522;42.696;23.494;2024-03-06T05:57:26;53799.53;;;-139.68;100.00
10940;BME280;5522;42.696;23.494;2024-03-06T05:59:53;53823.66;;;-139.68;100.00
10940;BME280;5522;42.696;23.494;2024-03-06T06:02:20;53781.44;;;-139.68;100.00
10940;BME280;5522;42.696;23.494;2024-03-06T06:04:49;53797.53;;;-139.68;100.00
10940;BME280;5522;42.696;23.494;2024-03-06T06:07:17;53827.69;;;-139.68;100.00
10940;BME280;5522;42.696;23.494;2024-03-06T06:09:43;53815.63;;;-139.68;100.00
10940;BME280;5522;42.696;23.494;2024-03-06T06:12:10;53801.53;;;-139.68;100.00
10940;BME280;5522;42.696;23.494;2024-03-06T06:14:37;53823.66;;;-139.68;100.00
10940;BME280;5522;42.696;23.494;2024-03-06T06:17:04;53801.53;;;-139.68;100.00
10940;BME280;5522;42.696;23.494;2024-03-06T06:19:31;53811.59;;;-139.68;100.00
10940;BME280;5522;42.696;23.494;2024-03-06T06:21:59;53795.50;;;-139.68;100.00
10940;BME280;5522;42.696;23.494;2024-03-06T06:24:26;53823.66;;;-139.68;100.00
10940;BME280;5522;42.696;23.494;2024-03-06T06:26:53;53827.69;;;-139.68;100.00
10940;BME280;5522;42.696;23.494;2024-03-06T06:29:19;53819.63;;;-139.68;100.00
10940;BME280;5522;42.696;23.494;2024-03-06T06:31:46;53799.53;;;-139.68;100.00
10940;BME280;5522;42.696;23.494;2024-03-06T06:34:13;53827.69;;;-139.68;100.00
10940;BME280;5522;42.696;23.494;2024-03-06T06:36:45;53795.50;;;-139.68;100.00
10940;BME280;5522;42.696;23.494;2024-03-06T06:39:13;53807.56;;;-139.68;100.00
10940;BME280;5522;42.696;23.494;2024-03-06T06:41:42;53839.75;;;-139.68;100.00
10940;BME280;5522;42.696;23.494;2024-03-06T06:44:09;53833.72;;;-139.68;100.00
10940;BME280;5522;42.696;23.494;2024-03-06T06:46:36;53805.56;;;-139.68;100.00
10940;BME280;5522;42.696;23.494;2024-03-06T06:49:02;53833.72;;;-139.68;100.00
10940;BME280;5522;42.696;23.494;2024-03-06T06:51:29;53829.69;;;-139.68;100.00
10940;BME280;5522;42.696;23.494;2024-03-06T06:53:56;53829.69;;;-139.68;100.00
10940;BME280;5522;42.696;23.494;2024-03-06T06:56:24;53839.75;;;-139.68;100.00
10940;BME280;5522;42.696;23.494;2024-03-06T06:58:51;53803.56;;;-139.68;100.00
10940;BME280;5522;42.696;23.494;2024-03-06T07:01:18;53823.66;;;-139.68;100.00
10940;BME280;5522;42.696;23.494;2024-03-06T07:03:45;53803.56;;;-139.68;100.00
10940;BME280;5522;42.696;23.494;2024-03-06T07:06:12;53835.72;;;-139.68;100.00
10940;BME280;5522;42.696;23.494;2024-03-06T07:08:39;53843.75;;;-139.68;100.00
10940;BME280;5522;42.696;23.494;2024-03-06T07:11:05;53847.78;;;-139.68;100.00
10940;BME280;5522;42.696;23.494;2024-03-06T07:13:34;53829.69;;;-139.68;100.00
10940;BME280;5522;42.696;23.494;2024-03-06T07:16:04;53827.69;;;-139.68;100.00
10940;BME280;5522;42.696;23.494;2024-03-06T07:18:34;53843.75;;;-139.68;100.00
10940;BME280;5522;42.696;23.494;2024-03-06T07:21:04;53833.72;;;-139.68;100.00
10940;BME280;5522;42.696;23.494;2024-03-06T07:23:31;53855.81;;;-139.68;100.00
10940;BME280;5522;42.696;23.494;2024-03-06T07:25:58;53839.75;;;-139.68;100.00
10940;BME280;5522;42.696;23.494;2024-03-06T07:28:25;53855.81;;;-139.68;100.00
10940;BME280;5522;42.696;23.494;2024-03-06T07:30:53;53843.75;;;-139.68;100.00
10940;BME280;5522;42.696;23.494;2024-03-06T07:33:20;53859.84;;;-139.68;100.00
10940;BME280;5522;42.696;23.494;2024-03-06T07:35:47;53849.78;;;-139.68;100.00
10940;BME280;5522;42.696;23.494;2024-03-06T07:38:14;53849.78;;;-139.68;100.00
10940;BME280;5522;42.696;23.494;2024-03-06T07:40:41;53847.78;;;-139.68;100.00
10940;BME280;5522;42.696;23.494;2024-03-06T07:43:08;53819.63;;;-139.68;100.00
10940;BME280;5522;42.696;23.494;2024-03-06T07:45:41;53853.81;;;-139.68;100.00
10940;BME280;5522;42.696;23.494;2024-03-06T07:48:14;53845.78;;;-139.68;100.00
10940;BME280;5522;42.696;23.494;2024-03-06T07:50:41;53843.75;;;-139.68;100.00
10940;BME280;5522;42.696;23.494;2024-03-06T07:53:10;53825.66;;;-139.68;100.00
10940;BME280;5522;42.696;23.494;2024-03-06T07:55:37;53837.72;;;-139.68;100.00
10940;BME280;5522;42.696;23.494;2024-03-06T07:58:06;53827.69;;;-139.68;100.00
10940;BME280;5522;42.696;23.494;2024-03-06T08:00:33;53877.94;;;-139.68;100.00
10940;BME280;5522;42.696;23.494;2024-03-06T08:03:04;53823.66;;;-139.68;100.00
10940;BME280;5522;42.696;23.494;2024-03-06T08:05:33;53863.88;;;-139.68;100.00
10940;BME280;5522;42.696;23.494;2024-03-06T08:08:02;53821.66;;;-139.68;100.00
10940;BME280;5522;42.696;23.494;2024-03-06T08:10:32;53865.88;;;-139.68;95.03
10940;BME280;5522;42.696;23.494;2024-03-06T08:12:59;53871.91;;;-139.68;84.75
10940;BME280;5522;42.696;23.494;2024-03-06T08:15:31;53871.91;;;-139.68;74.13
10940;BME280;5522;42.696;23.494;2024-03-06T08:17:59;53883.97;;;-139.68;71.03
10940;BME280;5522;42.696;23.494;2024-03-06T08:20:28;53883.97;;;-139.68;59.58
10940;BME280;5522;42.696;23.494;2024-03-06T08:22:56;53938.25;;;-139.68;52.60
10940;BME280;5522;42.696;23.494;2024-03-06T08:25:39;53936.22;;;-139.68;48.23
10940;BME280;5522;42.696;23.494;2024-03-06T08:28:06;53940.25;;;-139.68;46.43
10940;BME280;5522;42.696;23.494;2024-03-06T08:30:33;53940.25;;;-139.68;44.75
10940;BME280;5522;42.696;23.494;2024-03-06T08:33:00;53948.31;;;-139.68;43.01
10940;BME280;5522;42.696;23.494;2024-03-06T08:35:27;53930.22;;;-139.68;42.50
10940;BME280;5522;42.696;23.494;2024-03-06T08:37:59;53964.38;;;-139.68;39.48
10940;BME280;5522;42.696;23.494;2024-03-06T08:40:26;53970.41;;;-139.68;38.94
10940;BME280;5522;42.696;23.494;2024-03-06T08:42:55;53980.47;;;-139.68;38.37
10940;BME280;5522;42.696;23.494;2024-03-06T08:45:29;53962.38;;;-139.68;39.38
10940;BME280;5522;42.696;23.494;2024-03-06T08:47:56;54000.56;;;-139.68;39.48
10940;BME280;5522;42.696;23.494;2024-03-06T08:50:23;53956.34;;;-139.68;38.29
10940;BME280;5522;42.696;23.494;2024-03-06T08:52:50;53984.47;;;-139.68;38.50
10940;BME280;5522;42.696;23.494;2024-03-06T08:55:19;53960.38;;;-139.68;38.50
10940;BME280;5522;42.696;23.494;2024-03-06T08:57:46;53956.34;;;-139.68;37.57
10940;BME280;5522;42.696;23.494;2024-03-06T09:00:15;53968.41;;;-139.68;36.87
10940;BME280;5522;42.696;23.494;2024-03-06T09:02:43;53932.22;;;-139.68;37.28
10940;BME280;5522;42.696;23.494;2024-03-06T09:05:11;53942.25;;;-139.68;37.33
10940;BME280;5522;42.696;23.494;2024-03-06T09:07:38;53992.53;;;-139.68;35.56
10940;BME280;5522;42.696;23.494;2024-03-06T09:10:07;53970.41;;;-139.68;35.62
10940;BME280;5522;42.696;23.494;2024-03-06T09:12:35;53954.31;;;-139.68;34.91
10940;BME280;5522;42.696;23.494;2024-03-06T09:15:09;53966.38;;;-139.68;34.96
10940;BME280;5522;42.696;23.494;2024-03-06T09:17:38;53984.47;;;-139.68;34.14
10940;BME280;5522;42.696;23.494;2024-03-06T09:20:06;53968.41;;;-139.68;33.21
10940;BME280;5522;42.696;23.494;2024-03-06T09:22:43;53970.41;;;-139.68;34.86
10940;BME280;5522;42.696;23.494;2024-03-06T09:25:10;53972.41;;;-139.68;35.16
10940;BME280;5522;42.696;23.494;2024-03-06T09:27:39;53976.44;;;-139.68;33.70
10940;BME280;5522;42.696;23.494;2024-03-06T09:30:07;53992.53;;;-139.68;34.38
10940;BME280;5522;42.696;23.494;2024-03-06T09:32:35;53984.47;;;-139.68;32.59
10940;BME280;5522;42.696;23.494;2024-03-06T09:35:04;54004.59;;;-139.68;32.42
10940;BME280;5522;42.696;23.494;2024-03-06T09:37:31;54012.63;;;-139.68;32.09
10940;BME280;5522;42.696;23.494;2024-03-06T09:40:00;54028.72;;;-139.68;31.92
10940;BME280;5522;42.696;23.494;2024-03-06T09:42:28;53998.56;;;-139.68;31.66
10940;BME280;5522;42.696;23.494;2024-03-06T09:44:55;53988.50;;;-139.68;31.40
10940;BME280;5522;42.696;23.494;2024-03-06T09:47:22;54020.66;;;-139.68;31.81
10940;BME280;5522;42.696;23.494;2024-03-06T09:49:51;54050.84;;;-139.68;31.97
10940;BME280;5522;42.696;23.494;2024-03-06T09:52:20;53976.44;;;-139.68;32.69
10940;BME280;5522;42.696;23.494;2024-03-06T09:54:48;54002.56;;;-139.68;32.67
10940;BME280;5522;42.696;23.494;2024-03-06T09:57:15;54000.56;;;-139.68;31.48
10940;BME280;5522;42.696;23.494;2024-03-06T09:59:42;54020.66;;;-139.68;30.61
10940;BME280;5522;42.696;23.494;2024-03-06T10:02:18;54036.75;;;-139.68;29.46
10940;BME280;5522;42.696;23.494;2024-03-06T10:04:52;54020.66;;;-139.68;30.79
10940;BME280;5522;42.696;23.494;2024-03-06T10:07:20;54060.88;;;-139.68;30.76
10940;BME280;5522;42.696;23.494;2024-03-06T10:09:47;54020.66;;;-139.68;30.05
10940;BME280;5522;42.696;23.494;2024-03-06T10:12:21;54004.59;;;-139.68;30.10
10940;BME280;5522;42.696;23.494;2024-03-06T10:14:49;54020.66;;;-139.68;30.31
10940;BME280;5522;42.696;23.494;2024-03-06T10:17:19;54008.63;;;-139.68;28.38
10940;BME280;5522;42.696;23.494;2024-03-06T10:19:48;53968.41;;;-139.68;29.01
10940;BME280;5522;42.696;23.494;2024-03-06T10:22:17;54008.63;;;-139.68;29.59
10940;BME280;5522;42.696;23.494;2024-03-06T10:24:46;54032.72;;;-139.68;28.79
10940;BME280;5522;42.696;23.494;2024-03-06T10:27:16;53994.53;;;-139.68;28.82
10940;BME280;5522;42.696;23.494;2024-03-06T10:29:43;54040.78;;;-139.68;29.25
10940;BME280;5522;42.696;23.494;2024-03-06T10:32:10;53984.47;;;-139.68;27.15
10940;BME280;5522;42.696;23.494;2024-03-06T10:34:44;54016.66;;;-139.68;28.29
10940;BME280;5522;42.696;23.494;2024-03-06T10:37:11;54020.66;;;-139.68;27.74
10940;BME280;5522;42.696;23.494;2024-03-06T10:39:42;53984.47;;;-139.68;28.44
10940;BME280;5522;42.696;23.494;2024-03-06T10:42:12;53996.53;;;-139.68;27.30
10940;BME280;5522;42.696;23.494;2024-03-06T10:44:45;53986.50;;;-139.68;27.57
10940;BME280;5522;42.696;23.494;2024-03-06T10:47:15;54052.84;;;-139.68;27.56
10940;BME280;5522;42.696;23.494;2024-03-06T10:49:42;54010.63;;;-139.68;26.95
10940;BME280;5522;42.696;23.494;2024-03-06T10:52:09;53994.53;;;-139.68;27.69
10940;BME280;5522;42.696;23.494;2024-03-06T10:54:36;54034.75;;;-139.68;26.52
10940;BME280;5522;42.696;23.494;2024-03-06T10:57:08;54036.75;;;-139.68;26.49
10940;BME280;5522;42.696;23.494;2024-03-06T10:59:46;54012.63;;;-139.68;25.63
10940;BME280;5522;42.696;23.494;2024-03-06T11:02:17;53984.47;;;-139.68;26.38
10940;BME280;5522;42.696;23.494;2024-03-06T11:04:46;53980.47;;;-139.68;26.19
10940;BME280;5522;42.696;23.494;2024-03-06T11:07:15;53976.44;;;-139.68;26.44
10940;BME280;5522;42.696;23.494;2024-03-06T11:09:42;53980.47;;;-139.68;26.62
10940;BME280;5522;42.696;23.494;2024-03-06T11:12:32;53994.53;;;-139.68;27.56
10940;BME280;5522;42.696;23.494;2024-03-06T11:15:13;54024.69;;;-139.68;29.38
10940;BME280;5522;42.696;23.494;2024-03-06T11:17:49;54032.72;;;-139.68;30.75
10940;BME280;5522;42.696;23.494;2024-03-06T11:20:19;54012.63;;;-139.68;30.50
10940;BME280;5522;42.696;23.494;2024-03-06T11:23:07;54040.78;;;-139.68;31.38
10940;BME280;5522;42.696;23.494;2024-03-06T11:26:10;54012.63;;;-139.68;32.44
10940;BME280;5522;42.696;23.494;2024-03-06T11:28:46;53994.53;;;-139.68;33.95
10940;BME280;5522;42.696;23.494;2024-03-06T11:31:19;53988.50;;;-139.68;33.30
10940;BME280;5522;42.696;23.494;2024-03-06T11:33:56;53988.50;;;-139.68;33.97
10940;BME280;5522;42.696;23.494;2024-03-06T11:36:26;53982.47;;;-139.68;33.34
10940;BME280;5522;42.696;23.494;2024-03-06T11:38:57;53976.44;;;-139.68;33.30
10940;BME280;5522;42.696;23.494;2024-03-06T11:41:26;54012.63;;;-139.68;32.92
10940;BME280;5522;42.696;23.494;2024-03-06T11:43:58;54024.69;;;-139.68;32.85
10940;BME280;5522;42.696;23.494;2024-03-06T11:46:42;53990.50;;;-139.68;33.83
10940;BME280;5522;42.696;23.494;2024-03-06T11:49:15;54004.59;;;-139.68;33.60
10940;BME280;5522;42.696;23.494;2024-03-06T11:51:44;53990.50;;;-139.68;34.12
10940;BME280;5522;42.696;23.494;2024-03-06T11:54:11;53988.50;;;-139.68;33.21
10940;BME280;5522;42.696;23.494;2024-03-06T11:56:39;54020.66;;;-139.68;33.88
10940;BME280;5522;42.696;23.494;2024-03-06T11:59:05;53996.53;;;-139.68;33.62
10940;BME280;5522;42.696;23.494;2024-03-06T12:01:33;53966.38;;;-139.68;34.84
10940;BME280;5522;42.696;23.494;2024-03-06T12:04:03;53968.41;;;-139.68;34.72
10940;BME280;5522;42.696;23.494;2024-03-06T12:06:32;53984.47;;;-139.68;34.56
10940;BME280;5522;42.696;23.494;2024-03-06T12:09:02;53980.47;;;-139.68;34.10
10940;BME280;5522;42.696;23.494;2024-03-06T12:11:29;53956.34;;;-139.68;35.30
10940;BME280;5522;42.696;23.494;2024-03-06T12:13:59;53966.38;;;-139.68;35.98
10940;BME280;5522;42.696;23.494;2024-03-06T12:16:26;54016.66;;;-139.68;36.62
10940;BME280;5522;42.696;23.494;2024-03-06T12:18:56;54000.56;;;-139.68;37.03
10940;BME280;5522;42.696;23.494;2024-03-06T12:21:32;53992.53;;;-139.68;36.84
10940;BME280;5522;42.696;23.494;2024-03-06T12:24:03;53992.53;;;-139.68;36.01
10940;BME280;5522;42.696;23.494;2024-03-06T12:26:37;54002.56;;;-139.68;36.61
10940;BME280;5522;42.696;23.494;2024-03-06T12:29:05;53970.41;;;-139.68;36.41
10940;BME280;5522;42.696;23.494;2024-03-06T12:31:38;53990.50;;;-139.68;37.06
10940;BME280;5522;42.696;23.494;2024-03-06T12:34:06;53976.44;;;-139.68;37.49
10940;BME280;5522;42.696;23.494;2024-03-06T12:36:34;53938.25;;;-139.68;37.77
10940;BME280;5522;42.696;23.494;2024-03-06T12:39:03;53996.53;;;-139.68;38.24
10940;BME280;5522;42.696;23.494;2024-03-06T12:41:38;53968.41;;;-139.68;38.43
10940;BME280;5522;42.696;23.494;2024-03-06T12:44:05;53974.44;;;-139.68;41.45
10940;BME280;5522;42.696;23.494;2024-03-06T12:46:33;53992.53;;;-139.68;42.76